Time;durP1;ratioP1;P1;durP2;ratioP2;P2;SDS_P1;SDS_P2;PMS_P1;PMS_P2;Temp;Humidity;BMP_temperature;BMP_pressure;BME280_temperature;BME280_humidity;BME280_pressure;Samples;Min_cycle;Max_cycle;Signal;HPM_P1;HPM_P2
2022/04/17 00:02:01;;;;;;;2.40;2.20;;;17.40;51.60;;;;;;5132405;28;20311;-72
2022/04/17 00:04:27;;;;;;;1.90;1.80;;;17.50;51.70;;;;;;5131826;28;20168;-73
2022/04/17 00:06:53;;;;;;;2.30;2.10;;;17.40;51.60;;;;;;5131754;28;20173;-70
2022/04/17 00:09:18;;;;;;;1.98;1.88;;;17.40;51.60;;;;;;5132085;28;20173;-70
2022/04/17 00:11:44;;;;;;;2.25;2.05;;;17.40;51.70;;;;;;5131191;28;20172;-71
2022/04/17 00:14:12;;;;;;;1.83;1.65;;;17.40;51.70;;;;;;5132436;28;20192;-70
2022/04/17 00:16:40;;;;;;;2.00;1.90;;;17.40;51.70;;;;;;5132135;28;20194;-72
2022/04/17 00:19:08;;;;;;;2.33;2.10;;;17.40;51.70;;;;;;5131522;28;20643;-72
2022/04/17 00:21:34;;;;;;;2.05;1.85;;;17.40;51.70;;;;;;5132238;28;20177;-72
2022/04/17 00:23:59;;;;;;;1.80;1.70;;;17.40;51.80;;;;;;5132187;28;20192;-72
2022/04/17 00:26:25;;;;;;;1.90;1.80;;;17.40;51.80;;;;;;5131814;27;20227;-72
2022/04/17 00:28:50;;;;;;;2.20;2.00;;;17.40;51.80;;;;;;5135746;27;20168;-72
2022/04/17 00:31:16;;;;;;;2.92;1.65;;;17.30;51.70;;;;;;5135712;27;20606;-71
2022/04/17 00:33:42;;;;;;;2.00;1.90;;;17.30;51.70;;;;;;5134763;27;20173;-72
2022/04/17 00:36:07;;;;;;;2.65;2.05;;;17.30;51.70;;;;;;5135448;27;20208;-72
2022/04/17 00:38:33;;;;;;;2.30;2.10;;;17.30;51.80;;;;;;5135575;27;20176;-73
2022/04/17 00:40:58;;;;;;;2.45;1.83;;;17.30;51.80;;;;;;5134380;27;20172;-73
2022/04/17 00:43:28;;;;;;;1.90;1.77;;;17.30;51.80;;;;;;5135621;27;20184;-72
2022/04/17 00:45:54;;;;;;;1.83;1.73;;;17.30;51.80;;;;;;5135202;27;20184;-72
2022/04/17 00:48:19;;;;;;;2.22;2.03;;;17.30;51.80;;;;;;5134632;27;20164;-72
2022/04/17 00:50:46;;;;;;;1.80;1.70;;;17.30;51.80;;;;;;5134857;27;20188;-72
2022/04/17 00:53:14;;;;;;;2.13;1.98;;;17.30;51.80;;;;;;5116831;27;20216;-73
2022/04/17 00:55:40;;;;;;;1.75;1.65;;;17.30;51.80;;;;;;5099070;27;20210;-73
2022/04/17 00:58:06;;;;;;;1.92;1.83;;;17.30;51.80;;;;;;5117089;27;20266;-73
2022/04/17 01:00:33;;;;;;;2.20;2.00;;;17.20;51.70;;;;;;5134259;27;20180;-74
2022/04/17 01:02:58;;;;;;;1.98;1.70;;;17.20;51.80;;;;;;5134583;27;20235;-73
2022/04/17 01:05:24;;;;;;;1.85;1.75;;;17.20;51.70;;;;;;5135179;27;20229;-73
2022/04/17 01:07:50;;;;;;;2.33;2.13;;;17.20;51.70;;;;;;5134003;27;20992;-73
2022/04/17 01:10:19;;;;;;;2.47;2.00;;;17.20;51.80;;;;;;5135144;27;20176;-72
2022/04/17 01:12:44;;;;;;;1.90;1.70;;;17.20;51.80;;;;;;5134022;27;20249;-71
2022/04/17 01:15:11;;;;;;;2.00;1.83;;;17.20;51.80;;;;;;5115513;27;20208;-72
2022/04/17 01:17:39;;;;;;;2.70;1.88;;;17.20;51.80;;;;;;5134509;27;20257;-71
2022/04/17 01:20:06;;;;;;;2.50;2.30;;;17.20;52.40;;;;;;5134662;27;20176;-72
2022/04/17 01:22:31;;;;;;;2.20;2.00;;;17.20;51.80;;;;;;5133952;27;20177;-73
2022/04/17 01:27:41;;;;;;;1.92;1.83;;;17.20;51.80;;;;;;5134237;27;20199;-72
2022/04/17 01:30:07;;;;;;;2.10;1.90;;;17.10;51.80;;;;;;5133866;27;20200;-72
2022/04/17 01:32:33;;;;;;;2.60;2.22;;;17.10;51.80;;;;;;5134611;27;20297;-73
2022/04/17 01:34:59;;;;;;;2.13;1.90;;;17.10;51.80;;;;;;5133892;27;20738;-72
2022/04/17 01:37:24;;;;;;;1.92;1.80;;;17.10;51.70;;;;;;5133944;27;20172;-72
2022/04/17 01:39:50;;;;;;;2.22;2.03;;;17.10;51.80;;;;;;5133392;27;20172;-72
2022/04/17 01:42:16;;;;;;;2.33;1.92;;;17.10;51.70;;;;;;5134355;27;20533;-72
2022/04/17 01:44:42;;;;;;;2.15;1.88;;;17.10;51.70;;;;;;5133277;27;20689;-72
2022/04/17 01:47:07;;;;;;;2.10;1.90;;;17.10;51.80;;;;;;5134051;27;20255;-72
2022/04/17 01:49:33;;;;;;;2.00;1.85;;;17.10;51.80;;;;;;5134190;27;20176;-72
2022/04/17 01:51:58;;;;;;;2.40;2.20;;;17.00;51.80;;;;;;5133051;27;20202;-71
2022/04/17 01:54:25;;;;;;;2.10;1.98;;;17.10;51.80;;;;;;5134258;27;20284;-72
2022/04/17 01:56:51;;;;;;;2.22;2.08;;;17.10;51.80;;;;;;5133048;27;20267;-72
2022/04/17 01:59:17;;;;;;;2.75;2.20;;;17.00;51.70;;;;;;5134168;27;20295;-73
2022/04/17 02:01:42;;;;;;;1.90;1.80;;;17.00;51.70;;;;;;5133410;27;20176;-72
2022/04/17 02:04:08;;;;;;;2.25;1.90;;;17.00;51.70;;;;;;5133275;27;20173;-71
2022/04/17 02:06:34;;;;;;;2.15;1.95;;;17.00;51.70;;;;;;5133886;27;20171;-70
2022/04/17 02:09:00;;;;;;;2.40;2.20;;;17.00;51.70;;;;;;5134207;27;20644;-70
2022/04/17 02:11:26;;;;;;;2.53;2.33;;;17.00;51.70;;;;;;5133372;27;20231;-71
2022/04/17 02:13:52;;;;;;;1.70;1.60;;;17.00;51.70;;;;;;5133733;27;20177;-70
2022/04/17 02:16:18;;;;;;;2.35;2.13;;;17.00;51.70;;;;;;5133857;27;20188;-71
2022/04/17 02:18:47;;;;;;;2.00;1.90;;;17.00;51.70;;;;;;5132740;27;20168;-70
2022/04/17 02:21:13;;;;;;;2.08;1.60;;;17.00;51.70;;;;;;5133926;27;20184;-71
2022/04/17 02:23:41;;;;;;;2.10;1.90;;;16.90;51.60;;;;;;5134411;27;20185;-71
2022/04/17 02:26:06;;;;;;;2.40;2.20;;;16.90;51.70;;;;;;5133704;27;20514;-71
2022/04/17 02:28:34;;;;;;;3.20;2.47;;;17.30;51.80;;;;;;5134567;27;20272;-72
2022/04/17 02:31:03;;;;;;;1.65;1.55;;;16.90;51.70;;;;;;5134537;27;20177;-71
2022/04/17 02:33:29;;;;;;;2.00;1.90;;;16.90;51.60;;;;;;5133504;27;20255;-72
2022/04/17 02:35:55;;;;;;;2.38;2.17;;;16.90;51.60;;;;;;5134073;27;20743;-72
2022/04/17 02:38:20;;;;;;;1.98;1.88;;;16.90;51.60;;;;;;5134530;27;20164;-72
2022/04/17 02:40:46;;;;;;;2.25;2.05;;;16.90;51.60;;;;;;5133228;27;20191;-71
2022/04/17 02:43:11;;;;;;;2.28;2.10;;;16.90;51.80;;;;;;5134506;27;20241;-72
2022/04/17 02:45:37;;;;;;;2.00;1.90;;;16.90;51.60;;;;;;5133990;27;20198;-71
2022/04/17 02:48:03;;;;;;;2.40;2.20;;;16.90;51.60;;;;;;5133237;27;20233;-70
2022/04/17 02:50:29;;;;;;;2.25;2.08;;;16.90;51.70;;;;;;5133100;27;20603;-70
2022/04/17 02:52:57;;;;;;;1.98;1.77;;;16.90;51.60;;;;;;5133904;27;20172;-70
2022/04/17 02:55:22;;;;;;;2.38;2.00;;;16.90;51.60;;;;;;5133053;27;20623;-73
2022/04/17 02:57:52;;;;;;;2.20;2.00;;;16.80;51.60;;;;;;5133532;27;20229;-72
2022/04/17 03:00:17;;;;;;;2.45;2.25;;;16.80;51.60;;;;;;5133108;27;20176;-72
2022/04/17 03:05:36;;;;;;;2.53;2.30;;;16.80;51.60;;;;;;5133917;27;20182;-71
2022/04/17 03:08:09;;;;;;;2.03;1.83;;;16.80;51.50;;;;;;5133265;27;20217;-70
2022/04/17 03:10:36;;;;;;;2.03;1.92;;;16.80;51.60;;;;;;5133625;27;20211;-71
2022/04/17 03:13:03;;;;;;;2.72;2.53;;;16.80;51.60;;;;;;5133889;27;20255;-70
2022/04/17 03:15:28;;;;;;;2.25;2.00;;;16.80;51.60;;;;;;5133213;27;20248;-72
2022/04/17 03:17:54;;;;;;;2.15;2.05;;;16.80;51.60;;;;;;5133268;27;20289;-70
2022/04/17 03:20:19;;;;;;;2.58;2.38;;;16.80;51.60;;;;;;5133790;27;20528;-71
2022/04/17 03:22:45;;;;;;;3.05;2.40;;;16.80;51.50;;;;;;5132735;28;20611;-71
2022/04/17 03:25:10;;;;;;;2.70;2.30;;;16.70;51.50;;;;;;5133565;28;20191;-71
2022/04/17 03:27:36;;;;;;;2.33;2.13;;;16.70;51.50;;;;;;5133267;28;20175;-71
2022/04/17 03:30:02;;;;;;;1.92;1.83;;;16.70;51.50;;;;;;5132791;28;20191;-71
2022/04/17 03:32:28;;;;;;;2.50;2.30;;;16.70;51.50;;;;;;5133720;28;20251;-72
2022/04/17 03:34:54;;;;;;;2.20;2.00;;;16.70;51.50;;;;;;5133132;28;20549;-71
2022/04/17 03:37:19;;;;;;;2.28;2.08;;;16.70;51.50;;;;;;5132783;28;20176;-71
2022/04/17 03:39:46;;;;;;;2.50;2.30;;;16.70;51.50;;;;;;5133230;28;20173;-70
2022/04/17 03:42:12;;;;;;;2.47;2.28;;;16.70;51.50;;;;;;5133430;28;20180;-72
2022/04/17 03:44:38;;;;;;;2.47;2.28;;;16.70;51.50;;;;;;5132576;28;20172;-73
2022/04/17 03:47:05;;;;;;;2.97;2.40;;;16.70;51.50;;;;;;5133521;28;20218;-72
2022/04/17 03:49:31;;;;;;;2.40;2.20;;;16.70;51.50;;;;;;5132740;28;20207;-72
2022/04/17 03:51:57;;;;;;;2.50;2.30;;;16.70;51.50;;;;;;5133162;28;20192;-70
2022/04/17 03:54:22;;;;;;;2.17;2.03;;;16.70;51.50;;;;;;5133402;28;20245;-71
2022/04/17 03:56:48;;;;;;;2.35;2.20;;;16.60;51.50;;;;;;5132176;28;20592;-71
2022/04/17 03:59:14;;;;;;;2.30;2.10;;;16.60;51.50;;;;;;5133438;28;20188;-72
2022/04/17 04:01:39;;;;;;;2.58;2.38;;;16.60;51.50;;;;;;5133740;27;20191;-71
2022/04/17 04:04:06;;;;;;;2.78;2.47;;;16.60;51.50;;;;;;5136836;27;20196;-71
2022/04/17 04:06:34;;;;;;;2.83;2.40;;;16.60;51.50;;;;;;5137397;27;20191;-71
2022/04/17 04:09:00;;;;;;;2.58;2.38;;;16.60;51.50;;;;;;5137083;27;20654;-70
2022/04/17 04:11:26;;;;;;;2.60;2.40;;;16.60;51.50;;;;;;5136460;27;20184;-71
2022/04/17 04:13:52;;;;;;;2.92;2.40;;;16.60;51.50;;;;;;5136999;27;20172;-70
2022/04/17 04:16:18;;;;;;;3.00;2.67;;;16.60;51.50;;;;;;5137047;27;20212;-71
2022/04/17 04:18:43;;;;;;;2.70;2.50;;;16.60;51.50;;;;;;5136064;27;20264;-70
2022/04/17 04:21:09;;;;;;;2.70;2.50;;;16.60;51.50;;;;;;5136955;27;20200;-71
2022/04/17 04:23:34;;;;;;;2.40;2.20;;;16.60;51.40;;;;;;5136931;27;20472;-71
2022/04/17 04:26:00;;;;;;;2.78;2.58;;;16.50;51.50;;;;;;5136104;27;20172;-71
2022/04/17 04:28:38;;;;;;;2.88;2.67;;;16.50;51.40;;;;;;5137038;27;20180;-71
2022/04/17 04:31:07;;;;;;;2.60;2.40;;;16.50;51.40;;;;;;5137249;27;20554;-71
2022/04/17 04:33:33;;;;;;;2.83;2.63;;;16.50;51.50;;;;;;5136005;27;20180;-72
2022/04/17 04:35:59;;;;;;;2.80;2.10;;;16.50;51.50;;;;;;5136201;27;20212;-72
2022/04/17 04:38:25;;;;;;;2.40;2.20;;;16.60;51.50;;;;;;5136497;27;20687;-72
2022/04/17 04:40:51;;;;;;;2.83;2.63;;;16.50;51.40;;;;;;5135182;27;20184;-72
2022/04/17 04:43:17;;;;;;;2.78;2.58;;;16.50;51.40;;;;;;5136659;27;20200;-72
2022/04/17 04:51:10;;;;;;;2.72;2.53;;;16.50;51.30;;;;;;5136446;27;20198;-71
2022/04/17 04:53:36;;;;;;;2.80;2.60;;;16.50;51.40;;;;;;5135489;27;20161;-71
2022/04/17 04:56:01;;;;;;;2.78;2.58;;;16.50;51.40;;;;;;5136352;27;20262;-73
2022/04/17 04:58:27;;;;;;;2.78;2.53;;;16.50;51.40;;;;;;5136167;27;20171;-73
2022/04/17 05:00:52;;;;;;;2.78;2.53;;;16.50;51.40;;;;;;5135175;27;20173;-72
2022/04/17 05:03:19;;;;;;;2.97;2.55;;;16.50;51.40;;;;;;5135861;27;20691;-72
2022/04/17 05:05:45;;;;;;;3.28;2.97;;;16.50;51.40;;;;;;5135687;27;20593;-71
2022/04/17 05:08:10;;;;;;;2.50;2.30;;;16.50;51.30;;;;;;5135483;27;20192;-69
2022/04/17 05:10:37;;;;;;;2.80;2.60;;;16.50;51.30;;;;;;5135714;27;20201;-70
2022/04/17 05:13:02;;;;;;;3.05;2.78;;;16.50;51.40;;;;;;5135129;27;20172;-71
2022/04/17 05:15:28;;;;;;;2.45;2.33;;;16.50;51.30;;;;;;5135031;27;20585;-72
2022/04/17 05:17:53;;;;;;;3.75;2.75;;;16.50;51.30;;;;;;5135528;27;20538;-71
2022/04/17 05:20:19;;;;;;;3.15;2.90;;;16.50;51.30;;;;;;5135801;27;20631;-73
2022/04/17 05:22:45;;;;;;;2.55;2.35;;;16.50;51.30;;;;;;5134978;27;20172;-72
2022/04/17 05:25:10;;;;;;;2.95;2.70;;;16.50;51.30;;;;;;5135994;27;20566;-72
2022/04/17 05:27:36;;;;;;;2.70;2.50;;;16.40;51.20;;;;;;5135553;27;20176;-72
2022/04/17 05:30:02;;;;;;;2.90;2.55;;;16.40;51.20;;;;;;5135050;27;20179;-73
2022/04/17 05:32:27;;;;;;;3.03;2.72;;;16.40;51.20;;;;;;5135510;27;20160;-73
2022/04/17 05:34:53;;;;;;;2.95;2.75;;;16.50;51.30;;;;;;5134674;27;20212;-72
2022/04/17 05:37:18;;;;;;;2.50;2.40;;;16.50;51.30;;;;;;5135680;27;20215;-73
2022/04/17 05:39:44;;;;;;;3.25;2.80;;;16.50;51.30;;;;;;5135869;27;20177;-72
2022/04/17 05:42:10;;;;;;;2.88;2.63;;;16.50;51.30;;;;;;5134852;27;20168;-72
2022/04/17 05:44:37;;;;;;;3.40;3.10;;;16.50;51.30;;;;;;5134128;27;20242;-72
2022/04/17 05:47:02;;;;;;;3.25;2.95;;;16.50;51.30;;;;;;5117056;27;20252;-71
2022/04/17 05:49:28;;;;;;;3.00;2.70;;;16.40;51.20;;;;;;5116170;27;20208;-71
2022/04/17 05:51:55;;;;;;;3.10;2.90;;;16.40;51.20;;;;;;5135007;27;20177;-71
2022/04/17 05:54:20;;;;;;;3.92;2.95;;;16.50;51.20;;;;;;5100126;27;20203;-72
2022/04/17 05:56:46;;;;;;;3.35;3.05;;;16.50;51.20;;;;;;5115684;27;20233;-72
2022/04/17 05:59:11;;;;;;;2.97;2.78;;;16.50;51.20;;;;;;5135206;27;20634;-72
2022/04/17 06:01:37;;;;;;;3.60;3.25;;;16.50;51.30;;;;;;5134723;27;20176;-72
2022/04/17 06:04:02;;;;;;;3.03;2.83;;;16.50;51.00;;;;;;5134251;27;20192;-72
2022/04/17 06:06:28;;;;;;;3.17;2.88;;;16.60;50.90;;;;;;5135081;27;20171;-72
2022/04/17 06:08:53;;;;;;;2.95;2.70;;;16.60;51.00;;;;;;5134737;27;20677;-70
2022/04/17 06:11:19;;;;;;;2.95;2.70;;;16.70;50.90;;;;;;5134071;27;20161;-70
2022/04/17 06:13:44;;;;;;;3.10;2.80;;;16.70;50.90;;;;;;5134488;27;20179;-70
2022/04/17 06:16:10;;;;;;;3.30;3.00;;;16.70;50.80;;;;;;5134550;27;20208;-72
2022/04/17 06:18:35;;;;;;;3.03;2.72;;;16.70;50.90;;;;;;5133795;27;20214;-72
2022/04/17 06:21:01;;;;;;;3.20;2.90;;;16.70;50.90;;;;;;5134736;27;20187;-71
2022/04/17 06:23:28;;;;;;;3.30;3.00;;;16.80;50.90;;;;;;5134630;27;20225;-70
2022/04/17 06:25:53;;;;;;;3.47;3.17;;;16.70;50.70;;;;;;5133346;27;20226;-72
2022/04/17 06:28:18;;;;;;;3.15;2.83;;;16.80;50.70;;;;;;5134491;27;20188;-72
2022/04/17 06:30:44;;;;;;;3.10;2.80;;;16.70;50.60;;;;;;5134200;27;20197;-71
2022/04/17 06:33:10;;;;;;;3.20;2.90;;;16.70;50.40;;;;;;5133841;27;20664;-72
2022/04/17 06:35:35;;;;;;;3.13;2.85;;;16.80;50.40;;;;;;5134067;27;20216;-73
2022/04/17 06:38:01;;;;;;;2.80;2.60;;;16.90;50.30;;;;;;5134208;27;20168;-71
2022/04/17 06:40:28;;;;;;;3.08;2.78;;;17.00;50.30;;;;;;5133606;27;20172;-72
2022/04/17 06:42:56;;;;;;;3.17;2.95;;;17.10;50.30;;;;;;5134092;27;20638;-71
2022/04/17 06:45:21;;;;;;;2.70;2.50;;;17.30;50.20;;;;;;5133397;27;20726;-72
2022/04/17 06:47:47;;;;;;;3.50;3.00;;;17.40;50.10;;;;;;5134106;27;20184;-71
2022/04/17 06:50:13;;;;;;;3.15;2.88;;;17.60;49.90;;;;;;5134254;27;20180;-70
2022/04/17 06:52:39;;;;;;;3.35;2.63;;;17.80;49.70;;;;;;5132861;27;20217;-71
2022/04/17 06:55:05;;;;;;;2.75;2.45;;;17.90;49.30;;;;;;5134074;27;20200;-71
2022/04/17 06:57:31;;;;;;;2.90;2.60;;;18.10;49.10;;;;;;5115774;27;20181;-72
2022/04/17 06:59:57;;;;;;;2.85;2.60;;;18.30;48.80;;;;;;5132984;27;20180;-71
2022/04/17 07:02:22;;;;;;;2.90;2.60;;;18.40;48.60;;;;;;5133911;27;20378;-73
2022/04/17 07:04:48;;;;;;;2.53;2.33;;;18.40;48.70;;;;;;5133772;27;20168;-71
2022/04/17 07:07:13;;;;;;;3.20;2.90;;;18.40;48.70;;;;;;5133242;27;20200;-70
2022/04/17 07:09:39;;;;;;;2.53;2.33;;;18.40;48.80;;;;;;5133534;27;20175;-70
2022/04/17 07:12:04;;;;;;;2.85;2.65;;;18.30;48.90;;;;;;5133615;27;20560;-70
2022/04/17 07:14:30;;;;;;;3.28;2.97;;;18.30;49.00;;;;;;5132913;27;20201;-71
2022/04/17 07:16:55;;;;;;;2.65;2.45;;;18.20;49.10;;;;;;5133383;27;20179;-71
2022/04/17 07:19:21;;;;;;;2.97;2.28;;;18.20;49.20;;;;;;5133809;27;20199;-72
2022/04/17 07:21:46;;;;;;;2.33;2.13;;;18.10;49.30;;;;;;5132786;27;20301;-71
2022/04/17 07:24:12;;;;;;;2.80;2.60;;;18.10;49.40;;;;;;5133760;28;20301;-71
2022/04/17 07:26:37;;;;;;;2.58;2.38;;;18.00;49.50;;;;;;5133635;28;20229;-71
2022/04/17 07:29:03;;;;;;;2.40;2.20;;;18.00;49.60;;;;;;5132949;28;20172;-70
2022/04/17 07:31:29;;;;;;;2.40;2.20;;;18.00;49.70;;;;;;5133482;28;20184;-72
2022/04/17 07:33:54;;;;;;;2.75;2.50;;;17.90;49.70;;;;;;5133398;28;20172;-71
2022/04/17 07:36:20;;;;;;;2.85;2.55;;;17.90;49.80;;;;;;5132976;27;20212;-72
2022/04/17 07:38:46;;;;;;;2.33;2.13;;;17.90;49.90;;;;;;5137373;27;20211;-70
2022/04/17 07:41:11;;;;;;;2.67;2.45;;;17.90;50.00;;;;;;5137782;27;20172;-70
2022/04/17 07:43:37;;;;;;;2.67;2.47;;;17.90;50.00;;;;;;5136620;27;20178;-71
2022/04/17 07:46:02;;;;;;;2.60;2.33;;;17.80;50.00;;;;;;5137574;27;20631;-70
2022/04/17 07:48:28;;;;;;;2.10;2.00;;;17.80;50.10;;;;;;5118407;27;20183;-71
2022/04/17 07:50:54;;;;;;;2.15;2.05;;;17.70;50.20;;;;;;5137342;27;20176;-69
2022/04/17 07:53:20;;;;;;;2.42;2.22;;;17.80;50.20;;;;;;5137591;27;20160;-69
2022/04/17 07:55:45;;;;;;;2.60;2.40;;;17.70;50.20;;;;;;5136357;27;20208;-71
2022/04/17 07:58:15;;;;;;;2.78;2.50;;;17.80;50.30;;;;;;5137392;27;20164;-71
2022/04/17 08:00:45;;;;;;;2.50;2.30;;;17.70;50.30;;;;;;5137219;27;20172;-71
2022/04/17 08:03:21;;;;;;;3.10;2.50;;;17.70;50.30;;;;;;5136490;27;20220;-71
2022/04/17 08:05:46;;;;;;;2.90;2.30;;;17.80;50.30;;;;;;5137195;27;20188;-73
2022/04/17 08:08:12;;;;;;;3.28;2.60;;;17.80;50.30;;;;;;5137381;27;20603;-75
2022/04/17 08:10:37;;;;;;;7.32;2.45;;;17.80;50.40;;;;;;5136312;27;20172;-74
2022/04/17 08:13:03;;;;;;;3.42;2.40;;;17.80;50.50;;;;;;5137210;27;20180;-75
2022/04/17 08:15:29;;;;;;;3.80;2.30;;;17.70;50.60;;;;;;5137305;27;20233;-74
2022/04/17 08:17:54;;;;;;;2.88;2.58;;;17.80;50.80;;;;;;5136330;27;20173;-75
2022/04/17 08:20:20;;;;;;;4.95;2.63;;;17.80;51.00;;;;;;5137238;27;20214;-73
2022/04/17 08:22:46;;;;;;;3.42;2.40;;;17.70;51.00;;;;;;5136870;27;20177;-75
2022/04/17 08:25:11;;;;;;;3.47;2.72;;;17.80;51.20;;;;;;5136463;27;20602;-75
2022/04/17 08:27:51;;;;;;;3.08;2.25;;;17.80;51.30;;;;;;5136645;27;20185;-74
2022/04/17 08:30:24;;;;;;;2.90;2.50;;;17.80;51.30;;;;;;5137068;27;20226;-73
2022/04/17 08:32:50;;;;;;;3.35;2.40;;;17.80;51.50;;;;;;5136110;27;20202;-71
2022/04/17 08:35:15;;;;;;;2.80;2.60;;;17.80;51.50;;;;;;5136974;27;20204;-72
2022/04/17 08:37:41;;;;;;;4.07;2.55;;;17.80;51.50;;;;;;5136100;27;20164;-73
2022/04/17 08:40:07;;;;;;;6.53;2.35;;;17.80;52.30;;;;;;5136430;27;20173;-71
2022/04/17 08:42:32;;;;;;;3.20;2.15;;;17.80;51.60;;;;;;5136759;27;20184;-70
2022/04/17 08:44:58;;;;;;;3.47;2.38;;;17.80;51.60;;;;;;5135305;27;20233;-71
2022/04/17 08:47:25;;;;;;;5.85;2.33;;;17.90;51.60;;;;;;5136357;27;20184;-71
2022/04/17 08:49:50;;;;;;;4.00;2.42;;;17.90;51.60;;;;;;5134867;27;20582;-71
2022/04/17 08:52:16;;;;;;;5.45;2.42;;;17.90;51.50;;;;;;5100465;27;20304;-71
2022/04/17 08:54:43;;;;;;;3.80;2.30;;;18.00;51.50;;;;;;5100735;27;20674;-71
2022/04/17 08:57:09;;;;;;;7.03;2.65;;;17.90;51.50;;;;;;5136538;27;20218;-72
2022/04/17 08:59:34;;;;;;;5.15;2.20;;;18.00;51.70;;;;;;5135266;27;20228;-72
2022/04/17 09:02:08;;;;;;;3.22;2.10;;;18.00;51.70;;;;;;5136156;27;20232;-73
2022/04/17 09:04:33;;;;;;;3.53;2.50;;;18.00;51.70;;;;;;5136166;27;20531;-71
2022/04/17 09:07:00;;;;;;;2.80;2.00;;;18.00;51.80;;;;;;5135036;27;20252;-68
2022/04/17 09:09:25;;;;;;;2.97;2.10;;;18.00;51.90;;;;;;5136054;27;20630;-70
2022/04/17 09:11:56;;;;;;;3.75;2.15;;;18.10;51.90;;;;;;5135857;27;20184;-69
2022/04/17 09:14:22;;;;;;;3.85;2.22;;;18.10;52.00;;;;;;5135260;27;20169;-71
2022/04/17 09:16:49;;;;;;;3.58;2.28;;;18.10;52.10;;;;;;5135530;27;20180;-71
2022/04/17 09:19:16;;;;;;;2.88;2.60;;;18.10;51.90;;;;;;5135943;27;20203;-71
2022/04/17 09:21:42;;;;;;;2.70;2.10;;;18.10;52.00;;;;;;5134850;27;20180;-69
2022/04/17 09:24:14;;;;;;;3.53;2.22;;;18.10;51.90;;;;;;5135968;27;20169;-67
2022/04/17 09:26:56;;;;;;;2.22;1.98;;;18.20;52.00;;;;;;5135686;27;20221;-67
2022/04/17 09:29:25;;;;;;;2.50;2.20;;;18.20;52.00;;;;;;5135722;27;20498;-70
2022/04/17 09:32:00;;;;;;;4.95;2.42;;;18.20;52.10;;;;;;5135590;27;20198;-70
2022/04/17 09:34:27;;;;;;;2.33;1.95;;;18.20;52.00;;;;;;5134974;27;20180;-72
2022/04/17 09:36:58;;;;;;;3.17;2.78;;;18.20;52.00;;;;;;5135556;27;20560;-73
2022/04/17 09:39:23;;;;;;;3.53;1.98;;;18.20;51.90;;;;;;5117986;27;20173;-72
2022/04/17 09:41:59;;;;;;;3.80;2.50;;;18.30;52.10;;;;;;5116098;27;20188;-71
2022/04/17 09:44:47;;;;;;;3.53;2.50;;;18.30;52.00;;;;;;5135885;27;20192;-72
2022/04/17 09:47:26;;;;;;;2.30;2.10;;;18.30;52.00;;;;;;5135666;27;20187;-72
2022/04/17 09:49:51;;;;;;;2.85;1.88;;;18.30;52.10;;;;;;5134463;27;20176;-72
2022/04/17 09:52:17;;;;;;;3.22;2.20;;;18.30;52.10;;;;;;5135342;27;20177;-72
2022/04/17 09:54:42;;;;;;;3.65;2.15;;;18.30;52.00;;;;;;5134950;27;20243;-72
2022/04/17 09:57:08;;;;;;;3.08;2.10;;;18.40;52.00;;;;;;5134642;27;20176;-72
2022/04/17 09:59:36;;;;;;;2.58;2.28;;;18.40;52.20;;;;;;5134728;27;20172;-72
2022/04/17 10:02:02;;;;;;;3.10;2.05;;;18.40;52.20;;;;;;5134944;27;20586;-71
2022/04/17 10:04:27;;;;;;;2.10;1.90;;;18.40;52.20;;;;;;5116058;27;20703;-70
2022/04/17 10:07:02;;;;;;;3.45;2.28;;;18.40;52.10;;;;;;5134680;27;20516;-70
2022/04/17 10:09:27;;;;;;;2.97;2.55;;;18.50;52.10;;;;;;5134215;27;21012;-68
2022/04/17 10:11:56;;;;;;;3.38;1.90;;;18.50;52.10;;;;;;5134743;27;20176;-69
2022/04/17 10:14:22;;;;;;;2.38;1.73;;;18.50;52.10;;;;;;5134830;27;20199;-69
2022/04/17 10:16:48;;;;;;;2.20;2.00;;;18.50;52.10;;;;;;5115603;27;20690;-70
2022/04/17 10:19:19;;;;;;;2.67;1.58;;;18.50;52.10;;;;;;5116591;27;20181;-71
2022/04/17 10:21:45;;;;;;;2.10;1.90;;;18.50;52.10;;;;;;5134328;27;20192;-70
2022/04/17 10:24:15;;;;;;;2.63;2.00;;;18.60;52.10;;;;;;5133839;27;20177;-69
2022/04/17 10:26:45;;;;;;;3.22;2.38;;;18.60;52.10;;;;;;5134425;27;20229;-71
2022/04/17 10:29:40;;;;;;;3.78;2.53;;;18.60;52.10;;;;;;5134593;27;20521;-72
2022/04/17 10:32:31;;;;;;;3.65;1.80;;;18.60;52.00;;;;;;5100072;27;20650;-71
2022/04/17 10:35:17;;;;;;;3.05;1.95;;;18.70;52.00;;;;;;5115757;27;20212;-71
2022/04/17 10:38:20;;;;;;;3.17;2.05;;;18.70;51.80;;;;;;5117388;27;20168;-71
2022/04/17 10:41:02;;;;;;;3.10;1.88;;;18.70;51.70;;;;;;5115643;27;20543;-71
2022/04/17 10:43:37;;;;;;;3.17;2.13;;;18.70;51.70;;;;;;5134323;27;20263;-70
2022/04/17 10:46:18;;;;;;;3.72;1.85;;;18.80;51.80;;;;;;5115769;27;20200;-70
2022/04/17 10:48:57;;;;;;;3.08;2.10;;;18.80;51.90;;;;;;5133774;27;20187;-71
2022/04/17 10:51:30;;;;;;;3.58;1.70;;;18.80;51.80;;;;;;5133526;27;20188;-70
2022/04/17 10:54:13;;;;;;;3.42;2.00;;;18.80;51.70;;;;;;5133876;27;20172;-69
2022/04/17 10:56:57;;;;;;;3.80;2.03;;;18.80;52.40;;;;;;5133854;27;20310;-70
2022/04/17 10:59:27;;;;;;;3.55;1.90;;;18.80;51.90;;;;;;5133259;27;20248;-72
2022/04/17 11:02:03;;;;;;;2.20;1.70;;;18.80;51.80;;;;;;5133370;27;20247;-72
2022/04/17 11:04:41;;;;;;;4.32;2.05;;;18.80;51.70;;;;;;5134012;27;20255;-73
2022/04/17 11:07:07;;;;;;;3.22;2.10;;;18.80;51.70;;;;;;5133259;27;20260;-70
2022/04/17 11:09:39;;;;;;;2.70;2.00;;;18.90;51.80;;;;;;5133854;27;20193;-71
2022/04/17 11:12:10;;;;;;;4.05;2.20;;;18.90;51.80;;;;;;5132967;27;20183;-72
2022/04/17 11:14:39;;;;;;;3.28;1.65;;;18.90;51.80;;;;;;5132776;27;20206;-74
2022/04/17 11:17:08;;;;;;;4.57;1.77;;;18.90;51.80;;;;;;5133893;27;20176;-73
2022/04/17 11:19:39;;;;;;;3.72;1.90;;;18.90;51.70;;;;;;5133085;27;20176;-74
2022/04/17 11:22:07;;;;;;;2.72;1.70;;;18.90;51.70;;;;;;5115759;28;20183;-74
2022/04/17 11:24:54;;;;;;;1.98;1.83;;;18.90;51.70;;;;;;5133621;27;20182;-69
2022/04/17 11:27:35;;;;;;;3.90;1.73;;;19.00;51.60;;;;;;5133068;28;20172;-73
2022/04/17 11:30:01;;;;;;;2.33;1.85;;;18.90;51.60;;;;;;5133507;28;20641;-72
2022/04/17 11:32:30;;;;;;;3.25;1.50;;;19.00;51.70;;;;;;5133543;28;20189;-72
2022/04/17 11:34:56;;;;;;;2.22;1.95;;;18.90;51.70;;;;;;5132505;28;20264;-73
2022/04/17 11:37:23;;;;;;;2.88;1.90;;;18.90;51.70;;;;;;5133705;28;20225;-73
2022/04/17 11:39:48;;;;;;;1.60;1.50;;;18.90;51.60;;;;;;5133300;28;20190;-73
2022/04/17 11:42:14;;;;;;;2.25;1.60;;;18.90;51.60;;;;;;5132883;28;20259;-73
2022/04/17 11:44:43;;;;;;;2.17;1.48;;;18.90;51.60;;;;;;5133248;28;20255;-74
2022/04/17 11:47:13;;;;;;;3.85;1.77;;;18.90;51.60;;;;;;5133646;28;20172;-72
2022/04/17 11:49:39;;;;;;;4.18;2.00;;;18.90;51.50;;;;;;5132368;28;20225;-76
2022/04/17 11:52:12;;;;;;;1.85;1.75;;;19.00;51.40;;;;;;5133913;28;20176;-75
2022/04/17 11:54:37;;;;;;;4.32;2.33;;;19.00;51.30;;;;;;5132686;28;20252;-73
2022/04/17 11:57:03;;;;;;;1.83;1.45;;;19.00;51.30;;;;;;5133450;28;20176;-72
2022/04/17 11:59:29;;;;;;;3.03;1.70;;;19.10;51.20;;;;;;5133683;28;20180;-72
2022/04/17 12:02:10;;;;;;;2.40;1.83;;;19.10;51.20;;;;;;5132165;28;20216;-72
2022/04/17 12:04:36;;;;;;;4.28;1.70;;;19.10;51.20;;;;;;5133256;28;20168;-73
2022/04/17 12:07:02;;;;;;;2.80;1.67;;;19.10;51.20;;;;;;5133363;28;20180;-71
2022/04/17 12:09:27;;;;;;;2.78;1.73;;;19.10;51.20;;;;;;5132583;28;20182;-73
2022/04/17 12:11:53;;;;;;;1.75;1.65;;;19.10;51.10;;;;;;5132849;28;20176;-77
2022/04/17 12:14:28;;;;;;;2.40;1.80;;;19.20;51.10;;;;;;5133127;28;20299;-75
2022/04/17 12:16:54;;;;;;;2.22;1.77;;;19.20;51.10;;;;;;5132217;28;20175;-73
2022/04/17 12:19:20;;;;;;;2.80;1.55;;;19.20;51.10;;;;;;5133301;28;20169;-75
2022/04/17 12:21:46;;;;;;;3.33;2.00;;;19.20;51.10;;;;;;5133031;28;20204;-76
2022/04/17 12:24:11;;;;;;;1.92;1.35;;;19.20;51.10;;;;;;5117481;27;20196;-75
2022/04/17 12:26:37;;;;;;;3.38;1.63;;;19.20;51.00;;;;;;5136873;27;20502;-74
2022/04/17 12:29:05;;;;;;;2.55;1.70;;;19.20;51.00;;;;;;5137028;27;20180;-71
2022/04/17 12:31:30;;;;;;;3.03;1.70;;;19.30;51.20;;;;;;5101025;27;20177;-73
2022/04/17 12:34:08;;;;;;;1.88;1.75;;;19.30;51.20;;;;;;5136621;27;20179;-71
2022/04/17 12:36:33;;;;;;;1.55;1.45;;;19.30;51.10;;;;;;5136895;27;20218;-74
2022/04/17 12:39:02;;;;;;;1.90;1.80;;;19.40;51.10;;;;;;5135645;27;20168;-72
2022/04/17 12:41:28;;;;;;;2.03;1.63;;;19.40;51.00;;;;;;5136717;27;20184;-75
2022/04/17 12:43:54;;;;;;;1.90;1.45;;;19.50;50.90;;;;;;5135459;27;20168;-73
2022/04/17 12:46:27;;;;;;;1.95;1.40;;;19.50;50.80;;;;;;5136855;27;20176;-72
2022/04/17 12:49:06;;;;;;;2.65;1.40;;;19.60;50.80;;;;;;5137091;27;20164;-72
2022/04/17 12:51:32;;;;;;;2.80;1.50;;;19.60;50.70;;;;;;5135962;27;20183;-73
2022/04/17 12:53:57;;;;;;;3.10;1.50;;;19.60;50.60;;;;;;5136443;27;20263;-72
2022/04/17 12:56:26;;;;;;;2.22;1.30;;;19.60;50.60;;;;;;5136309;27;20212;-72
2022/04/17 12:58:56;;;;;;;1.58;1.38;;;19.60;50.50;;;;;;5135596;27;20165;-71
2022/04/17 13:01:26;;;;;;;1.50;1.40;;;19.70;50.50;;;;;;5136376;27;20172;-70